sensor_id;sensor_type;location;lat;lon;timestamp;P1;durP1;ratioP1;P2;durP2;ratioP2
21166;SDS011;10741;52.272;9.580;2023-02-18T00:00:13;5.53;;;1.33;;
21166;SDS011;10741;52.272;9.580;2023-02-18T00:02:41;5.93;;;1.30;;
21166;SDS011;10741;52.272;9.580;2023-02-18T00:05:07;8.63;;;1.63;;
21166;SDS011;10741;52.272;9.580;2023-02-18T00:07:37;6.77;;;1.43;;
21166;SDS011;10741;52.272;9.580;2023-02-18T00:10:05;8.53;;;1.30;;
21166;SDS011;10741;52.272;9.580;2023-02-18T00:12:41;7.67;;;1.80;;
21166;SDS011;10741;52.272;9.580;2023-02-18T00:15:07;9.07;;;1.43;;
21166;SDS011;10741;52.272;9.580;2023-02-18T00:17:34;6.50;;;1.50;;
21166;SDS011;10741;52.272;9.580;2023-02-18T00:19:59;6.03;;;1.47;;
21166;SDS011;10741;52.272;9.580;2023-02-18T00:22:25;8.80;;;1.43;;
21166;SDS011;10741;52.272;9.580;2023-02-18T00:24:51;5.70;;;1.43;;
21166;SDS011;10741;52.272;9.580;2023-02-18T00:27:17;4.60;;;1.50;;
21166;SDS011;10741;52.272;9.580;2023-02-18T00:29:43;5.53;;;1.20;;
21166;SDS011;10741;52.272;9.580;2023-02-18T00:32:08;7.40;;;1.70;;
21166;SDS011;10741;52.272;9.580;2023-02-18T00:34:34;8.80;;;1.40;;
21166;SDS011;10741;52.272;9.580;2023-02-18T00:37:00;4.00;;;1.07;;
21166;SDS011;10741;52.272;9.580;2023-02-18T00:39:26;8.43;;;1.77;;
21166;SDS011;10741;52.272;9.580;2023-02-18T00:41:51;9.90;;;1.47;;
21166;SDS011;10741;52.272;9.580;2023-02-18T00:44:17;5.90;;;1.90;;
21166;SDS011;10741;52.272;9.580;2023-02-18T00:46:43;5.93;;;1.80;;
21166;SDS011;10741;52.272;9.580;2023-02-18T00:49:12;4.00;;;1.10;;
21166;SDS011;10741;52.272;9.580;2023-02-18T00:51:38;10.10;;;1.50;;
21166;SDS011;10741;52.272;9.580;2023-02-18T00:54:04;6.83;;;1.30;;
21166;SDS011;10741;52.272;9.580;2023-02-18T00:56:29;7.67;;;1.43;;
21166;SDS011;10741;52.272;9.580;2023-02-18T00:58:55;4.53;;;0.90;;
21166;SDS011;10741;52.272;9.580;2023-02-18T01:01:21;7.57;;;1.33;;
21166;SDS011;10741;52.272;9.580;2023-02-18T01:03:48;8.13;;;1.20;;
21166;SDS011;10741;52.272;9.580;2023-02-18T01:06:14;5.77;;;1.40;;
21166;SDS011;10741;52.272;9.580;2023-02-18T01:08:40;3.33;;;1.13;;
21166;SDS011;10741;52.272;9.580;2023-02-18T01:11:06;11.13;;;1.43;;
21166;SDS011;10741;52.272;9.580;2023-02-18T01:13:33;8.27;;;1.67;;
21166;SDS011;10741;52.272;9.580;2023-02-18T01:16:00;7.37;;;1.10;;
21166;SDS011;10741;52.272;9.580;2023-02-18T01:18:26;8.47;;;1.30;;
21166;SDS011;10741;52.272;9.580;2023-02-18T01:20:51;8.53;;;1.57;;
21166;SDS011;10741;52.272;9.580;2023-02-18T01:23:17;6.73;;;1.30;;
21166;SDS011;10741;52.272;9.580;2023-02-18T01:25:43;5.80;;;1.70;;
21166;SDS011;10741;52.272;9.580;2023-02-18T01:28:10;5.73;;;1.63;;
21166;SDS011;10741;52.272;9.580;2023-02-18T01:30:37;7.20;;;1.93;;
21166;SDS011;10741;52.272;9.580;2023-02-18T01:33:04;3.90;;;1.17;;
21166;SDS011;10741;52.272;9.580;2023-02-18T01:35:30;5.80;;;1.23;;
21166;SDS011;10741;52.272;9.580;2023-02-18T01:37:56;9.00;;;1.90;;
21166;SDS011;10741;52.272;9.580;2023-02-18T01:40:24;7.67;;;1.40;;
21166;SDS011;10741;52.272;9.580;2023-02-18T01:42:52;6.80;;;1.93;;
21166;SDS011;10741;52.272;9.580;2023-02-18T01:50:39;5.77;;;1.43;;
21166;SDS011;10741;52.272;9.580;2023-02-18T01:53:09;4.40;;;1.27;;
21166;SDS011;10741;52.272;9.580;2023-02-18T01:55:38;5.03;;;1.30;;
21166;SDS011;10741;52.272;9.580;2023-02-18T01:58:04;8.20;;;1.60;;
21166;SDS011;10741;52.272;9.580;2023-02-18T02:00:30;6.97;;;1.43;;
21166;SDS011;10741;52.272;9.580;2023-02-18T02:02:56;5.70;;;1.63;;
21166;SDS011;10741;52.272;9.580;2023-02-18T02:05:22;7.40;;;1.60;;
21166;SDS011;10741;52.272;9.580;2023-02-18T02:07:49;11.17;;;1.67;;
21166;SDS011;10741;52.272;9.580;2023-02-18T02:10:18;6.13;;;1.53;;
21166;SDS011;10741;52.272;9.580;2023-02-18T02:23:44;7.33;;;1.60;;
21166;SDS011;10741;52.272;9.580;2023-02-18T02:29:12;9.53;;;2.30;;
21166;SDS011;10741;52.272;9.580;2023-02-18T02:37:04;8.17;;;2.43;;
21166;SDS011;10741;52.272;9.580;2023-02-18T02:42:28;13.40;;;3.43;;
21166;SDS011;10741;52.272;9.580;2023-02-18T02:48:04;10.87;;;4.80;;
21166;SDS011;10741;52.272;9.580;2023-02-18T02:50:38;11.17;;;5.60;;
21166;SDS011;10741;52.272;9.580;2023-02-18T02:53:12;17.83;;;7.07;;
21166;SDS011;10741;52.272;9.580;2023-02-18T02:55:44;21.33;;;7.87;;
21166;SDS011;10741;52.272;9.580;2023-02-18T02:58:13;19.57;;;8.80;;
21166;SDS011;10741;52.272;9.580;2023-02-18T03:00:49;18.60;;;9.53;;
21166;SDS011;10741;52.272;9.580;2023-02-18T03:11:43;25.00;;;12.73;;
21166;SDS011;10741;52.272;9.580;2023-02-18T03:14:27;24.87;;;13.27;;
21166;SDS011;10741;52.272;9.580;2023-02-18T03:17:24;24.73;;;13.17;;
21166;SDS011;10741;52.272;9.580;2023-02-18T03:20:03;26.57;;;14.83;;
21166;SDS011;10741;52.272;9.580;2023-02-18T03:22:40;25.13;;;14.23;;
21166;SDS011;10741;52.272;9.580;2023-02-18T03:25:15;26.67;;;14.67;;
21166;SDS011;10741;52.272;9.580;2023-02-18T03:27:43;26.23;;;15.80;;
21166;SDS011;10741;52.272;9.580;2023-02-18T03:30:34;28.37;;;14.87;;
21166;SDS011;10741;52.272;9.580;2023-02-18T03:33:06;27.83;;;14.43;;
21166;SDS011;10741;52.272;9.580;2023-02-18T03:35:38;24.07;;;13.67;;
21166;SDS011;10741;52.272;9.580;2023-02-18T03:38:10;28.63;;;15.30;;
21166;SDS011;10741;52.272;9.580;2023-02-18T03:40:40;29.43;;;16.03;;
21166;SDS011;10741;52.272;9.580;2023-02-18T03:43:06;29.80;;;16.30;;
21166;SDS011;10741;52.272;9.580;2023-02-18T03:45:32;27.17;;;16.73;;
21166;SDS011;10741;52.272;9.580;2023-02-18T03:47:58;30.57;;;18.53;;
21166;SDS011;10741;52.272;9.580;2023-02-18T03:50:24;33.90;;;18.97;;
21166;SDS011;10741;52.272;9.580;2023-02-18T03:52:49;34.50;;;19.57;;
21166;SDS011;10741;52.272;9.580;2023-02-18T03:55:15;29.10;;;18.53;;
21166;SDS011;10741;52.272;9.580;2023-02-18T03:57:41;34.63;;;18.83;;
21166;SDS011;10741;52.272;9.580;2023-02-18T04:00:07;34.80;;;20.03;;
21166;SDS011;10741;52.272;9.580;2023-02-18T04:02:34;35.27;;;20.30;;
21166;SDS011;10741;52.272;9.580;2023-02-18T04:05:00;37.03;;;20.60;;
21166;SDS011;10741;52.272;9.580;2023-02-18T04:07:26;38.77;;;21.03;;
21166;SDS011;10741;52.272;9.580;2023-02-18T04:09:51;38.23;;;21.87;;
21166;SDS011;10741;52.272;9.580;2023-02-18T04:12:17;39.23;;;21.73;;
21166;SDS011;10741;52.272;9.580;2023-02-18T04:14:43;40.40;;;23.10;;
21166;SDS011;10741;52.272;9.580;2023-02-18T04:17:09;37.10;;;22.77;;
21166;SDS011;10741;52.272;9.580;2023-02-18T04:19:34;39.00;;;23.60;;
21166;SDS011;10741;52.272;9.580;2023-02-18T04:22:00;42.73;;;23.40;;
21166;SDS011;10741;52.272;9.580;2023-02-18T04:24:26;44.10;;;24.90;;
21166;SDS011;10741;52.272;9.580;2023-02-18T04:26:52;41.37;;;24.17;;
21166;SDS011;10741;52.272;9.580;2023-02-18T04:29:18;41.07;;;23.37;;
21166;SDS011;10741;52.272;9.580;2023-02-18T04:31:44;42.47;;;25.03;;
21166;SDS011;10741;52.272;9.580;2023-02-18T04:34:10;43.37;;;25.00;;
21166;SDS011;10741;52.272;9.580;2023-02-18T04:36:35;47.07;;;27.50;;
21166;SDS011;10741;52.272;9.580;2023-02-18T04:39:01;47.77;;;26.37;;
21166;SDS011;10741;52.272;9.580;2023-02-18T04:41:27;53.53;;;28.90;;
21166;SDS011;10741;52.272;9.580;2023-02-18T04:43:53;55.43;;;29.07;;
21166;SDS011;10741;52.272;9.580;2023-02-18T04:46:19;52.57;;;27.10;;
21166;SDS011;10741;52.272;9.580;2023-02-18T04:48:45;58.33;;;28.03;;
21166;SDS011;10741;52.272;9.580;2023-02-18T04:51:10;58.13;;;28.97;;
21166;SDS011;10741;52.272;9.580;2023-02-18T04:53:36;51.77;;;27.97;;
21166;SDS011;10741;52.272;9.580;2023-02-18T04:56:02;53.37;;;27.20;;
21166;SDS011;10741;52.272;9.580;2023-02-18T04:58:28;54.20;;;27.50;;
21166;SDS011;10741;52.272;9.580;2023-02-18T05:00:57;50.77;;;27.17;;
21166;SDS011;10741;52.272;9.580;2023-02-18T05:03:24;56.17;;;28.20;;
21166;SDS011;10741;52.272;9.580;2023-02-18T05:05:50;55.23;;;26.97;;
21166;SDS011;10741;52.272;9.580;2023-02-18T05:08:15;56.53;;;26.97;;
21166;SDS011;10741;52.272;9.580;2023-02-18T05:10:41;52.07;;;26.33;;
21166;SDS011;10741;52.272;9.580;2023-02-18T05:13:07;50.20;;;26.90;;
21166;SDS011;10741;52.272;9.580;2023-02-18T05:15:32;54.47;;;25.63;;
21166;SDS011;10741;52.272;9.580;2023-02-18T05:17:58;53.40;;;25.87;;
21166;SDS011;10741;52.272;9.580;2023-02-18T05:20:24;47.30;;;24.40;;
21166;SDS011;10741;52.272;9.580;2023-02-18T05:22:50;48.03;;;23.13;;
21166;SDS011;10741;52.272;9.580;2023-02-18T05:25:16;45.30;;;21.57;;
21166;SDS011;10741;52.272;9.580;2023-02-18T05:27:41;46.70;;;20.27;;
21166;SDS011;10741;52.272;9.580;2023-02-18T05:30:07;40.67;;;19.17;;
21166;SDS011;10741;52.272;9.580;2023-02-18T05:32:33;31.97;;;16.07;;
21166;SDS011;10741;52.272;9.580;2023-02-18T05:34:59;28.57;;;14.90;;
21166;SDS011;10741;52.272;9.580;2023-02-18T05:37:25;36.30;;;15.47;;
21166;SDS011;10741;52.272;9.580;2023-02-18T05:39:50;35.67;;;16.00;;
21166;SDS011;10741;52.272;9.580;2023-02-18T05:42:16;39.10;;;16.80;;
21166;SDS011;10741;52.272;9.580;2023-02-18T05:44:42;31.67;;;15.57;;
21166;SDS011;10741;52.272;9.580;2023-02-18T05:47:09;31.57;;;14.97;;
21166;SDS011;10741;52.272;9.580;2023-02-18T05:49:36;31.13;;;15.70;;
21166;SDS011;10741;52.272;9.580;2023-02-18T05:52:03;34.30;;;14.83;;
21166;SDS011;10741;52.272;9.580;2023-02-18T05:54:29;30.37;;;14.00;;
21166;SDS011;10741;52.272;9.580;2023-02-18T05:56:56;35.07;;;13.83;;
21166;SDS011;10741;52.272;9.580;2023-02-18T05:59:22;33.40;;;15.13;;
21166;SDS011;10741;52.272;9.580;2023-02-18T06:01:48;28.63;;;12.97;;
21166;SDS011;10741;52.272;9.580;2023-02-18T06:04:14;31.07;;;13.47;;
21166;SDS011;10741;52.272;9.580;2023-02-18T06:06:40;32.40;;;13.47;;
21166;SDS011;10741;52.272;9.580;2023-02-18T06:09:06;34.33;;;13.13;;
21166;SDS011;10741;52.272;9.580;2023-02-18T06:11:32;35.20;;;13.50;;
21166;SDS011;10741;52.272;9.580;2023-02-18T06:13:58;34.20;;;13.20;;
21166;SDS011;10741;52.272;9.580;2023-02-18T06:16:24;33.13;;;13.33;;
21166;SDS011;10741;52.272;9.580;2023-02-18T06:18:50;33.37;;;13.23;;
21166;SDS011;10741;52.272;9.580;2023-02-18T06:21:16;32.17;;;12.67;;
21166;SDS011;10741;52.272;9.580;2023-02-18T06:23:42;39.40;;;12.23;;
21166;SDS011;10741;52.272;9.580;2023-02-18T06:26:08;39.60;;;13.80;;
21166;SDS011;10741;52.272;9.580;2023-02-18T06:28:34;32.23;;;13.03;;
21166;SDS011;10741;52.272;9.580;2023-02-18T06:31:00;48.13;;;14.07;;
21166;SDS011;10741;52.272;9.580;2023-02-18T06:33:25;40.33;;;14.07;;
21166;SDS011;10741;52.272;9.580;2023-02-18T06:35:55;37.47;;;14.70;;
21166;SDS011;10741;52.272;9.580;2023-02-18T06:38:23;42.00;;;13.37;;
21166;SDS011;10741;52.272;9.580;2023-02-18T06:40:49;36.57;;;12.43;;
21166;SDS011;10741;52.272;9.580;2023-02-18T06:43:15;37.77;;;11.50;;
21166;SDS011;10741;52.272;9.580;2023-02-18T06:45:43;27.37;;;9.93;;
21166;SDS011;10741;52.272;9.580;2023-02-18T06:48:09;25.93;;;10.83;;
21166;SDS011;10741;52.272;9.580;2023-02-18T06:50:35;27.10;;;10.53;;
21166;SDS011;10741;52.272;9.580;2023-02-18T06:53:00;28.63;;;9.63;;
21166;SDS011;10741;52.272;9.580;2023-02-18T06:55:26;31.70;;;11.50;;
21166;SDS011;10741;52.272;9.580;2023-02-18T06:57:52;28.57;;;10.47;;
21166;SDS011;10741;52.272;9.580;2023-02-18T07:00:18;34.37;;;15.00;;
21166;SDS011;10741;52.272;9.580;2023-02-18T07:02:44;34.13;;;13.30;;
21166;SDS011;10741;52.272;9.580;2023-02-18T07:05:09;28.57;;;13.57;;
21166;SDS011;10741;52.272;9.580;2023-02-18T07:07:35;35.73;;;13.47;;
21166;SDS011;10741;52.272;9.580;2023-02-18T07:10:01;31.67;;;12.67;;
21166;SDS011;10741;52.272;9.580;2023-02-18T07:12:27;35.20;;;12.50;;
21166;SDS011;10741;52.272;9.580;2023-02-18T07:14:53;28.13;;;10.93;;
21166;SDS011;10741;52.272;9.580;2023-02-18T07:17:19;31.17;;;11.50;;
21166;SDS011;10741;52.272;9.580;2023-02-18T07:19:45;35.37;;;11.53;;
21166;SDS011;10741;52.272;9.580;2023-02-18T07:22:10;30.33;;;10.63;;
21166;SDS011;10741;52.272;9.580;2023-02-18T07:24:36;31.37;;;9.80;;
21166;SDS011;10741;52.272;9.580;2023-02-18T07:27:02;28.83;;;10.10;;
21166;SDS011;10741;52.272;9.580;2023-02-18T07:29:28;21.90;;;7.80;;
21166;SDS011;10741;52.272;9.580;2023-02-18T07:31:53;25.03;;;8.50;;
21166;SDS011;10741;52.272;9.580;2023-02-18T07:34:19;23.97;;;8.43;;
21166;SDS011;10741;52.272;9.580;2023-02-18T07:36:45;25.43;;;8.70;;
21166;SDS011;10741;52.272;9.580;2023-02-18T07:39:11;26.17;;;8.00;;
21166;SDS011;10741;52.272;9.580;2023-02-18T07:41:37;22.47;;;8.90;;
21166;SDS011;10741;52.272;9.580;2023-02-18T07:44:02;20.27;;;8.13;;
21166;SDS011;10741;52.272;9.580;2023-02-18T07:46:28;20.07;;;8.03;;
21166;SDS011;10741;52.272;9.580;2023-02-18T07:48:55;19.00;;;8.00;;
21166;SDS011;10741;52.272;9.580;2023-02-18T07:51:21;15.30;;;6.13;;
21166;SDS011;10741;52.272;9.580;2023-02-18T07:53:47;14.17;;;6.50;;
21166;SDS011;10741;52.272;9.580;2023-02-18T07:56:13;9.77;;;4.73;;
21166;SDS011;10741;52.272;9.580;2023-02-18T07:58:39;8.33;;;3.83;;
21166;SDS011;10741;52.272;9.580;2023-02-18T08:01:05;8.73;;;4.27;;
21166;SDS011;10741;52.272;9.580;2023-02-18T08:03:33;7.83;;;3.60;;
21166;SDS011;10741;52.272;9.580;2023-02-18T08:05:59;7.47;;;3.73;;
21166;SDS011;10741;52.272;9.580;2023-02-18T08:08:26;7.03;;;3.63;;
21166;SDS011;10741;52.272;9.580;2023-02-18T08:10:54;5.10;;;2.67;;
21166;SDS011;10741;52.272;9.580;2023-02-18T08:13:22;4.07;;;2.77;;
21166;SDS011;10741;52.272;9.580;2023-02-18T08:15:48;3.83;;;2.53;;
21166;SDS011;10741;52.272;9.580;2023-02-18T08:18:18;3.20;;;2.00;;
21166;SDS011;10741;52.272;9.580;2023-02-18T08:20:46;3.80;;;2.00;;
21166;SDS011;10741;52.272;9.580;2023-02-18T08:23:13;2.70;;;1.73;;
21166;SDS011;10741;52.272;9.580;2023-02-18T08:25:39;2.60;;;1.90;;
21166;SDS011;10741;52.272;9.580;2023-02-18T08:28:09;3.03;;;1.80;;
21166;SDS011;10741;52.272;9.580;2023-02-18T08:30:34;2.83;;;2.00;;
21166;SDS011;10741;52.272;9.580;2023-02-18T08:33:00;2.23;;;1.97;;
21166;SDS011;10741;52.272;9.580;2023-02-18T08:35:26;2.73;;;2.10;;
21166;SDS011;10741;52.272;9.580;2023-02-18T08:37:51;3.43;;;2.00;;
21166;SDS011;10741;52.272;9.580;2023-02-18T08:40:17;2.73;;;2.20;;
21166;SDS011;10741;52.272;9.580;2023-02-18T08:42:43;1.83;;;1.53;;
21166;SDS011;10741;52.272;9.580;2023-02-18T08:45:09;2.07;;;1.87;;
21166;SDS011;10741;52.272;9.580;2023-02-18T08:47:34;3.13;;;2.10;;
21166;SDS011;10741;52.272;9.580;2023-02-18T08:50:00;2.60;;;1.97;;
21166;SDS011;10741;52.272;9.580;2023-02-18T08:52:26;2.97;;;1.90;;
21166;SDS011;10741;52.272;9.580;2023-02-18T08:54:52;2.13;;;1.67;;
21166;SDS011;10741;52.272;9.580;2023-02-18T08:57:20;2.50;;;1.80;;
21166;SDS011;10741;52.272;9.580;2023-02-18T08:59:51;2.30;;;2.03;;
21166;SDS011;10741;52.272;9.580;2023-02-18T09:02:21;2.30;;;1.73;;
21166;SDS011;10741;52.272;9.580;2023-02-18T09:04:46;1.90;;;1.70;;
21166;SDS011;10741;52.272;9.580;2023-02-18T09:07:12;1.70;;;1.60;;
21166;SDS011;10741;52.272;9.580;2023-02-18T09:09:38;2.50;;;1.90;;
21166;SDS011;10741;52.272;9.580;2023-02-18T09:12:04;1.73;;;1.50;;
21166;SDS011;10741;52.272;9.580;2023-02-18T09:14:30;1.80;;;1.33;;
21166;SDS011;10741;52.272;9.580;2023-02-18T09:16:56;1.93;;;1.20;;
21166;SDS011;10741;52.272;9.580;2023-02-18T09:19:22;1.87;;;1.60;;
21166;SDS011;10741;52.272;9.580;2023-02-18T09:21:48;1.43;;;1.30;;
21166;SDS011;10741;52.272;9.580;2023-02-18T09:24:17;1.20;;;1.10;;
21166;SDS011;10741;52.272;9.580;2023-02-18T09:26:45;0.90;;;0.90;;
21166;SDS011;10741;52.272;9.580;2023-02-18T09:29:11;1.37;;;0.80;;
21166;SDS011;10741;52.272;9.580;2023-02-18T09:31:37;0.90;;;0.90;;
21166;SDS011;10741;52.272;9.580;2023-02-18T09:34:03;0.90;;;0.90;;
21166;SDS011;10741;52.272;9.580;2023-02-18T09:36:30;1.10;;;1.00;;
21166;SDS011;10741;52.272;9.580;2023-02-18T09:38:56;1.07;;;0.97;;
21166;SDS011;10741;52.272;9.580;2023-02-18T09:41:33;1.10;;;1.00;;
21166;SDS011;10741;52.272;9.580;2023-02-18T09:44:20;1.30;;;1.00;;
21166;SDS011;10741;52.272;9.580;2023-02-18T09:46:51;1.20;;;1.10;;
21166;SDS011;10741;52.272;9.580;2023-02-18T09:49:22;1.20;;;1.10;;
21166;SDS011;10741;52.272;9.580;2023-02-18T09:51:51;1.40;;;1.10;;
21166;SDS011;10741;52.272;9.580;2023-02-18T09:54:19;1.17;;;1.07;;
21166;SDS011;10741;52.272;9.580;2023-02-18T09:56:45;1.00;;;0.90;;
21166;SDS011;10741;52.272;9.580;2023-02-18T09:59:19;0.80;;;0.80;;
21166;SDS011;10741;52.272;9.580;2023-02-18T10:01:48;1.30;;;1.00;;
21166;SDS011;10741;52.272;9.580;2023-02-18T10:04:28;1.57;;;0.90;;
21166;SDS011;10741;52.272;9.580;2023-02-18T10:06:59;0.93;;;0.93;;
21166;SDS011;10741;52.272;9.580;2023-02-18T10:09:28;1.10;;;1.00;;
21166;SDS011;10741;52.272;9.580;2023-02-18T10:12:15;1.17;;;1.07;;
21166;SDS011;10741;52.272;9.580;2023-02-18T10:14:51;0.87;;;0.87;;
21166;SDS011;10741;52.272;9.580;2023-02-18T10:17:19;0.87;;;0.87;;
21166;SDS011;10741;52.272;9.580;2023-02-18T10:19:48;1.87;;;0.90;;
21166;SDS011;10741;52.272;9.580;2023-02-18T10:22:15;1.67;;;1.07;;
21166;SDS011;10741;52.272;9.580;2023-02-18T10:24:47;1.00;;;0.90;;
21166;SDS011;10741;52.272;9.580;2023-02-18T10:29:59;1.20;;;1.10;;
21166;SDS011;10741;52.272;9.580;2023-02-18T10:32:44;1.37;;;0.90;;
21166;SDS011;10741;52.272;9.580;2023-02-18T10:35:30;1.60;;;1.10;;
21166;SDS011;10741;52.272;9.580;2023-02-18T10:38:11;1.20;;;1.10;;
21166;SDS011;10741;52.272;9.580;2023-02-18T10:43:41;2.10;;;1.00;;
21166;SDS011;10741;52.272;9.580;2023-02-18T10:49:01;0.80;;;0.80;;
21166;SDS011;10741;52.272;9.580;2023-02-18T10:51:30;0.90;;;0.90;;
21166;SDS011;10741;52.272;9.580;2023-02-18T10:53:58;0.83;;;0.83;;
21166;SDS011;10741;52.272;9.580;2023-02-18T10:56:40;0.90;;;0.80;;
21166;SDS011;10741;52.272;9.580;2023-02-18T10:59:21;0.93;;;0.93;;
21166;SDS011;10741;52.272;9.580;2023-02-18T11:04:24;0.70;;;0.70;;
21166;SDS011;10741;52.272;9.580;2023-02-18T11:09:47;0.73;;;0.73;;
21166;SDS011;10741;52.272;9.580;2023-02-18T11:17:39;1.10;;;1.00;;
21166;SDS011;10741;52.272;9.580;2023-02-18T11:20:21;1.20;;;1.10;;
21166;SDS011;10741;52.272;9.580;2023-02-18T11:23:11;1.50;;;1.40;;
21166;SDS011;10741;52.272;9.580;2023-02-18T11:26:06;1.37;;;1.20;;
21166;SDS011;10741;52.272;9.580;2023-02-18T11:28:47;1.40;;;1.30;;
21166;SDS011;10741;52.272;9.580;2023-02-18T11:31:16;1.50;;;1.40;;
21166;SDS011;10741;52.272;9.580;2023-02-18T11:33:48;1.60;;;1.50;;
21166;SDS011;10741;52.272;9.580;2023-02-18T11:36:32;1.27;;;1.20;;
21166;SDS011;10741;52.272;9.580;2023-02-18T11:41:34;1.30;;;1.20;;
21166;SDS011;10741;52.272;9.580;2023-02-18T11:46:55;1.17;;;1.07;;
21166;SDS011;10741;52.272;9.580;2023-02-18T11:49:24;1.77;;;1.30;;
21166;SDS011;10741;52.272;9.580;2023-02-18T11:51:51;1.10;;;1.00;;
21166;SDS011;10741;52.272;9.580;2023-02-18T11:54:27;1.10;;;1.00;;
21166;SDS011;10741;52.272;9.580;2023-02-18T11:57:13;1.30;;;1.20;;
21166;SDS011;10741;52.272;9.580;2023-02-18T11:59:42;1.30;;;1.20;;
21166;SDS011;10741;52.272;9.580;2023-02-18T12:07:19;1.03;;;0.97;;
21166;SDS011;10741;52.272;9.580;2023-02-18T12:09:52;1.03;;;0.93;;
21166;SDS011;10741;52.272;9.580;2023-02-18T12:12:42;1.27;;;1.00;;
21166;SDS011;10741;52.272;9.580;2023-02-18T12:15:15;1.30;;;1.10;;
21166;SDS011;10741;52.272;9.580;2023-02-18T12:28:31;1.10;;;1.00;;
21166;SDS011;10741;52.272;9.580;2023-02-18T12:42:44;1.03;;;1.00;;
21166;SDS011;10741;52.272;9.580;2023-02-18T12:48:16;1.90;;;1.70;;
21166;SDS011;10741;52.272;9.580;2023-02-18T12:56:14;1.37;;;0.90;;
21166;SDS011;10741;52.272;9.580;2023-02-18T13:09:38;1.50;;;1.10;;
21166;SDS011;10741;52.272;9.580;2023-02-18T13:12:20;1.90;;;1.30;;
21166;SDS011;10741;52.272;9.580;2023-02-18T13:15:22;2.13;;;1.37;;
21166;SDS011;10741;52.272;9.580;2023-02-18T13:18:00;1.73;;;1.30;;
21166;SDS011;10741;52.272;9.580;2023-02-18T13:20:37;3.60;;;1.40;;
21166;SDS011;10741;52.272;9.580;2023-02-18T13:25:59;2.23;;;1.47;;
21166;SDS011;10741;52.272;9.580;2023-02-18T13:28:29;1.87;;;1.20;;
21166;SDS011;10741;52.272;9.580;2023-02-18T13:33:59;2.00;;;1.40;;
21166;SDS011;10741;52.272;9.580;2023-02-18T13:37:05;1.70;;;1.50;;
21166;SDS011;10741;52.272;9.580;2023-02-18T13:39:55;2.00;;;1.50;;
21166;SDS011;10741;52.272;9.580;2023-02-18T13:42:24;1.40;;;1.30;;
21166;SDS011;10741;52.272;9.580;2023-02-18T13:47:56;2.03;;;1.63;;
21166;SDS011;10741;52.272;9.580;2023-02-18T14:01:05;3.53;;;2.23;;
21166;SDS011;10741;52.272;9.580;2023-02-18T14:08:45;5.10;;;2.90;;
21166;SDS011;10741;52.272;9.580;2023-02-18T14:16:07;2.57;;;1.70;;
21166;SDS011;10741;52.272;9.580;2023-02-18T14:23:39;2.67;;;2.20;;
21166;SDS011;10741;52.272;9.580;2023-02-18T14:26:08;2.30;;;1.83;;
21166;SDS011;10741;52.272;9.580;2023-02-18T14:28:47;2.73;;;2.00;;
21166;SDS011;10741;52.272;9.580;2023-02-18T14:44:49;3.77;;;1.90;;
21166;SDS011;10741;52.272;9.580;2023-02-18T14:50:29;2.50;;;1.53;;
21166;SDS011;10741;52.272;9.580;2023-02-18T14:52:58;4.60;;;1.93;;
21166;SDS011;10741;52.272;9.580;2023-02-18T14:55:32;2.77;;;2.00;;
21166;SDS011;10741;52.272;9.580;2023-02-18T14:58:01;3.93;;;2.33;;
21166;SDS011;10741;52.272;9.580;2023-02-18T15:00:33;3.23;;;2.37;;
21166;SDS011;10741;52.272;9.580;2023-02-18T15:03:03;4.50;;;2.63;;
21166;SDS011;10741;52.272;9.580;2023-02-18T15:05:36;5.20;;;2.63;;
21166;SDS011;10741;52.272;9.580;2023-02-18T15:08:04;6.30;;;2.60;;
21166;SDS011;10741;52.272;9.580;2023-02-18T15:10:44;6.80;;;2.77;;
21166;SDS011;10741;52.272;9.580;2023-02-18T15:13:22;4.20;;;3.20;;
21166;SDS011;10741;52.272;9.580;2023-02-18T15:16:06;3.97;;;3.27;;
21166;SDS011;10741;52.272;9.580;2023-02-18T15:18:37;6.73;;;3.73;;
21166;SDS011;10741;52.272;9.580;2023-02-18T15:21:14;6.13;;;4.17;;
21166;SDS011;10741;52.272;9.580;2023-02-18T15:24:06;5.53;;;3.87;;
21166;SDS011;10741;52.272;9.580;2023-02-18T15:26:40;7.30;;;3.70;;
21166;SDS011;10741;52.272;9.580;2023-02-18T15:29:14;7.30;;;4.30;;
21166;SDS011;10741;52.272;9.580;2023-02-18T15:31:43;10.00;;;3.83;;
21166;SDS011;10741;52.272;9.580;2023-02-18T15:36:55;12.43;;;4.23;;
21166;SDS011;10741;52.272;9.580;2023-02-18T15:39:23;6.87;;;4.00;;
21166;SDS011;10741;52.272;9.580;2023-02-18T15:41:56;7.30;;;4.33;;
21166;SDS011;10741;52.272;9.580;2023-02-18T15:44:27;9.87;;;4.07;;
21166;SDS011;10741;52.272;9.580;2023-02-18T15:47:03;7.27;;;4.00;;
21166;SDS011;10741;52.272;9.580;2023-02-18T15:49:32;7.30;;;4.30;;
21166;SDS011;10741;52.272;9.580;2023-02-18T15:52:01;7.80;;;4.50;;
21166;SDS011;10741;52.272;9.580;2023-02-18T15:54:27;8.17;;;4.37;;
21166;SDS011;10741;52.272;9.580;2023-02-18T15:56:55;8.07;;;4.20;;
21166;SDS011;10741;52.272;9.580;2023-02-18T15:59:25;7.93;;;4.43;;
21166;SDS011;10741;52.272;9.580;2023-02-18T16:01:55;8.47;;;4.67;;
21166;SDS011;10741;52.272;9.580;2023-02-18T16:04:28;8.07;;;4.30;;
21166;SDS011;10741;52.272;9.580;2023-02-18T16:06:57;7.33;;;4.40;;
21166;SDS011;10741;52.272;9.580;2023-02-18T16:09:32;9.07;;;4.80;;
21166;SDS011;10741;52.272;9.580;2023-02-18T16:12:01;5.57;;;3.50;;
21166;SDS011;10741;52.272;9.580;2023-02-18T16:17:14;8.27;;;3.67;;
21166;SDS011;10741;52.272;9.580;2023-02-18T16:27:45;10.83;;;4.43;;
21166;SDS011;10741;52.272;9.580;2023-02-18T16:30:29;10.30;;;4.83;;
21166;SDS011;10741;52.272;9.580;2023-02-18T16:32:56;7.40;;;4.00;;
21166;SDS011;10741;52.272;9.580;2023-02-18T16:35:23;9.13;;;4.17;;
21166;SDS011;10741;52.272;9.580;2023-02-18T16:37:52;8.20;;;3.57;;
21166;SDS011;10741;52.272;9.580;2023-02-18T16:40:25;10.67;;;4.67;;
21166;SDS011;10741;52.272;9.580;2023-02-18T16:42:57;7.00;;;4.47;;
21166;SDS011;10741;52.272;9.580;2023-02-18T16:45:32;10.30;;;4.50;;
21166;SDS011;10741;52.272;9.580;2023-02-18T16:48:51;16.77;;;8.90;;
21166;SDS011;10741;52.272;9.580;2023-02-18T16:51:03;9.77;;;4.80;;
21166;SDS011;10741;52.272;9.580;2023-02-18T16:53:33;8.57;;;4.57;;
21166;SDS011;10741;52.272;9.580;2023-02-18T16:55:59;10.13;;;4.87;;
21166;SDS011;10741;52.272;9.580;2023-02-18T16:58:25;7.20;;;4.30;;
21166;SDS011;10741;52.272;9.580;2023-02-18T17:00:51;7.23;;;4.63;;
21166;SDS011;10741;52.272;9.580;2023-02-18T17:03:17;11.43;;;4.30;;
21166;SDS011;10741;52.272;9.580;2023-02-18T17:05:44;8.70;;;4.60;;
21166;SDS011;10741;52.272;9.580;2023-02-18T17:08:13;10.13;;;4.37;;
21166;SDS011;10741;52.272;9.580;2023-02-18T17:10:41;7.60;;;3.90;;
21166;SDS011;10741;52.272;9.580;2023-02-18T17:13:12;8.80;;;3.87;;
21166;SDS011;10741;52.272;9.580;2023-02-18T17:15:39;7.07;;;3.70;;
21166;SDS011;10741;52.272;9.580;2023-02-18T17:18:07;5.73;;;3.10;;
21166;SDS011;10741;52.272;9.580;2023-02-18T17:20:33;7.57;;;2.73;;
21166;SDS011;10741;52.272;9.580;2023-02-18T17:22:59;8.20;;;3.40;;
21166;SDS011;10741;52.272;9.580;2023-02-18T17:25:33;8.13;;;3.87;;
21166;SDS011;10741;52.272;9.580;2023-02-18T17:28:00;7.33;;;3.30;;
21166;SDS011;10741;52.272;9.580;2023-02-18T17:30:27;7.43;;;3.13;;
21166;SDS011;10741;52.272;9.580;2023-02-18T17:32:53;6.90;;;3.10;;
21166;SDS011;10741;52.272;9.580;2023-02-18T17:35:20;8.57;;;3.70;;
21166;SDS011;10741;52.272;9.580;2023-02-18T17:37:47;8.13;;;3.40;;
21166;SDS011;10741;52.272;9.580;2023-02-18T17:40:14;10.70;;;3.97;;
21166;SDS011;10741;52.272;9.580;2023-02-18T17:42:42;8.00;;;3.20;;
21166;SDS011;10741;52.272;9.580;2023-02-18T17:45:16;7.00;;;2.60;;